Serra Atasoy — TCZS8 — position and weather

sailwx.info

Track history (hours):
 
Tides and Currents Weather Stations Pressure Air Temp Water Temp Dewpoint Dewpoint Depression Visibility Wind Speed Wind Dir Waves Ship Positions

Serra Atasoy

Last reported at 2017-Nov-17 18:09 UTC. Time now 2017-Nov-24 12:48 UTC.
Position N 66°48' E 013°55'.

Length 90 m; draft 3.6 m.

Type: Cargo ship. MMSI: 271042556.

Date/timePositionNaut miles runAvg speedWind from/ knotsBaromVisibWave heightAir tempDewpointWater temp
2017-Nov-17 18:09N 66°48' E 013°55'0 0.0
2017-Nov-17 18:00N 66°48' E 013°55'1 2.4
2017-Nov-17 17:30N 66°48' E 013°52'510.9
2017-Nov-17 17:00N 66°49' E 013°39'611.0
2017-Nov-17 16:30N 66°48' E 013°25'510.9
2017-Nov-17 16:00N 66°45' E 013°13'611.4
2017-Nov-17 15:31N 66°40' E 013°08'611.3
2017-Nov-17 15:00N 66°35' E 013°05'510.2
2017-Nov-17 14:30N 66°30' E 012°59'611.6
2017-Nov-17 14:00N 66°24' E 012°59'510.9
2017-Nov-17 13:31N 66°20' E 012°52'611.4
2017-Nov-17 13:00N 66°17' E 012°40'3 6.0
2017-Nov-17 12:31N 66°15' E 012°33'3 6.4
2017-Nov-17 12:01N 66°15' E 012°25'5 9.0
2017-Nov-17 11:30N 66°17' E 012°15'5 9.5
2017-Nov-17 11:00N 66°16' E 012°04'5 9.8
2017-Nov-17 10:30N 66°15' E 011°52'16010.7
2017-Nov-16 19:32N 64°00' E 008°29'013.0
2017-Nov-16 19:30N 63°60' E 008°28'613.0
2017-Nov-16 19:00N 63°55' E 008°19'612.7
2017-Nov-16 18:30N 63°49' E 008°11'611.9
2017-Nov-16 18:00N 63°44' E 008°04'611.5
2017-Nov-16 17:30N 63°40' E 007°56'611.5
2017-Nov-16 17:00N 63°36' E 007°47'611.7
2017-Nov-16 16:30N 63°31' E 007°39'611.7
2017-Nov-16 16:00N 63°27' E 007°30'611.3
2017-Nov-16 15:31N 63°22' E 007°23'612.4
2017-Nov-16 15:01N 63°17' E 007°14'612.2
2017-Nov-16 14:30N 63°13' E 007°04'612.1
2017-Nov-16 14:00N 63°09' E 006°55'611.5
2017-Nov-16 13:30N 63°05' E 006°46'611.2
2017-Nov-16 13:00N 63°01' E 006°37'510.8
2017-Nov-16 12:30N 62°57' E 006°28'611.1
2017-Nov-16 12:00N 62°53' E 006°19'611.8
2017-Nov-16 11:30N 62°49' E 006°10'611.9
2017-Nov-16 11:00N 62°45' E 006°02'611.7
2017-Nov-16 10:30N 62°40' E 005°53'612.0
2017-Nov-16 10:00N 62°36' E 005°44'611.6
2017-Nov-16 09:30N 62°31' E 005°36'611.2
2017-Nov-16 09:00N 62°27' E 005°28'611.5
2017-Nov-16 08:30N 62°23' E 005°19'611.7
2017-Nov-16 08:00N 62°19' E 005°11'612.0
2017-Nov-16 07:30N 62°14' E 005°04'612.3
2017-Nov-16 07:00N 62°09' E 004°57'611.8
2017-Nov-16 06:31N 62°04' E 004°50'611.5
2017-Nov-16 06:00N 61°59' E 004°44'510.9
2017-Nov-16 05:30N 61°55' E 004°36'510.9
2017-Nov-16 05:00N 61°51' E 004°27'28011.0
2017-Nov-15 03:28N 58°46' W 002°36'511.4
2017-Nov-15 03:00N 58°43' W 002°45'510.6
2017-Nov-15 02:31N 58°43' W 002°55'4 8.1
2017-Nov-15 02:01N 58°43' W 003°02'3 5.6
2017-Nov-15 01:31N 58°43' W 003°08'3 5.7
2017-Nov-15 01:00N 58°42' W 003°13'4 7.9
2017-Nov-15 00:30N 58°42' W 003°21'4 7.9
2017-Nov-15 00:00N 58°41' W 003°28'5 9.3
2017-Nov-14 23:30N 58°41' W 003°37'5 9.8
2017-Nov-14 23:00N 58°40' W 003°46'510.5
2017-Nov-14 22:30N 58°40' W 003°56'510.6
2017-Nov-14 22:00N 58°39' W 004°07'510.8
2017-Nov-14 21:30N 58°39' W 004°17'610.9
2017-Nov-14 20:59N 58°39' W 004°28'2510.2
2017-Nov-14 18:33N 58°32' W 005°14'111.3
2017-Nov-14 18:29N 58°31' W 005°14'163 9.7
2017-Nov-14 01:35N 55°57' W 006°53'1 9.7
2017-Nov-14 01:30N 55°56' W 006°52'5 9.1
2017-Nov-14 01:00N 55°53' W 006°47'5 9.7
2017-Nov-14 00:30N 55°49' W 006°42'510.3
2017-Nov-14 00:00N 55°44' W 006°37'510.0
2017-Nov-13 23:30N 55°40' W 006°33'611.2
2017-Nov-13 23:00N 55°35' W 006°27'612.1
2017-Nov-13 22:30N 55°30' W 006°21'611.5
2017-Nov-13 22:00N 55°26' W 006°15'  
Track history (hours):
 
Tides and Currents Weather Stations Pressure Air Temp Water Temp Dewpoint Dewpoint Depression Visibility Wind Speed Wind Dir Waves Ship Positions

Serra Atasoy

Last reported at 2017-Nov-17 18:09 UTC. Time now 2017-Nov-24 12:48 UTC.
Position N 66°48' E 013°55'.

Length 90 m; draft 3.6 m.

Type: Cargo ship. MMSI: 271042556.

Date/timePositionNaut miles runAvg speedWind from/ knotsBaromVisibWave heightAir tempDewpointWater temp
2017-Nov-17 18:09N 66°48' E 013°55'0 0.0
2017-Nov-17 18:00N 66°48' E 013°55'1 2.4
2017-Nov-17 17:30N 66°48' E 013°52'510.9
2017-Nov-17 17:00N 66°49' E 013°39'611.0
2017-Nov-17 16:30N 66°48' E 013°25'510.9
2017-Nov-17 16:00N 66°45' E 013°13'611.4
2017-Nov-17 15:31N 66°40' E 013°08'611.3
2017-Nov-17 15:00N 66°35' E 013°05'510.2
2017-Nov-17 14:30N 66°30' E 012°59'611.6
2017-Nov-17 14:00N 66°24' E 012°59'510.9
2017-Nov-17 13:31N 66°20' E 012°52'611.4
2017-Nov-17 13:00N 66°17' E 012°40'3 6.0
2017-Nov-17 12:31N 66°15' E 012°33'3 6.4
2017-Nov-17 12:01N 66°15' E 012°25'5 9.0
2017-Nov-17 11:30N 66°17' E 012°15'5 9.5
2017-Nov-17 11:00N 66°16' E 012°04'5 9.8
2017-Nov-17 10:30N 66°15' E 011°52'16010.7
2017-Nov-16 19:32N 64°00' E 008°29'013.0
2017-Nov-16 19:30N 63°60' E 008°28'613.0
2017-Nov-16 19:00N 63°55' E 008°19'612.7
2017-Nov-16 18:30N 63°49' E 008°11'611.9
2017-Nov-16 18:00N 63°44' E 008°04'611.5
2017-Nov-16 17:30N 63°40' E 007°56'611.5
2017-Nov-16 17:00N 63°36' E 007°47'611.7
2017-Nov-16 16:30N 63°31' E 007°39'611.7
2017-Nov-16 16:00N 63°27' E 007°30'611.3
2017-Nov-16 15:31N 63°22' E 007°23'612.4
2017-Nov-16 15:01N 63°17' E 007°14'612.2
2017-Nov-16 14:30N 63°13' E 007°04'612.1
2017-Nov-16 14:00N 63°09' E 006°55'611.5
2017-Nov-16 13:30N 63°05' E 006°46'611.2
2017-Nov-16 13:00N 63°01' E 006°37'510.8
2017-Nov-16 12:30N 62°57' E 006°28'611.1
2017-Nov-16 12:00N 62°53' E 006°19'611.8
2017-Nov-16 11:30N 62°49' E 006°10'611.9
2017-Nov-16 11:00N 62°45' E 006°02'611.7
2017-Nov-16 10:30N 62°40' E 005°53'612.0
2017-Nov-16 10:00N 62°36' E 005°44'611.6
2017-Nov-16 09:30N 62°31' E 005°36'611.2
2017-Nov-16 09:00N 62°27' E 005°28'611.5
2017-Nov-16 08:30N 62°23' E 005°19'611.7
2017-Nov-16 08:00N 62°19' E 005°11'612.0
2017-Nov-16 07:30N 62°14' E 005°04'612.3
2017-Nov-16 07:00N 62°09' E 004°57'611.8
2017-Nov-16 06:31N 62°04' E 004°50'611.5
2017-Nov-16 06:00N 61°59' E 004°44'510.9
2017-Nov-16 05:30N 61°55' E 004°36'510.9
2017-Nov-16 05:00N 61°51' E 004°27'28011.0
2017-Nov-15 03:28N 58°46' W 002°36'511.4
2017-Nov-15 03:00N 58°43' W 002°45'510.6
2017-Nov-15 02:31N 58°43' W 002°55'4 8.1
2017-Nov-15 02:01N 58°43' W 003°02'3 5.6
2017-Nov-15 01:31N 58°43' W 003°08'3 5.7
2017-Nov-15 01:00N 58°42' W 003°13'4 7.9
2017-Nov-15 00:30N 58°42' W 003°21'4 7.9
2017-Nov-15 00:00N 58°41' W 003°28'5 9.3
2017-Nov-14 23:30N 58°41' W 003°37'5 9.8
2017-Nov-14 23:00N 58°40' W 003°46'510.5
2017-Nov-14 22:30N 58°40' W 003°56'510.6
2017-Nov-14 22:00N 58°39' W 004°07'510.8
2017-Nov-14 21:30N 58°39' W 004°17'610.9
2017-Nov-14 20:59N 58°39' W 004°28'2510.2
2017-Nov-14 18:33N 58°32' W 005°14'111.3
2017-Nov-14 18:29N 58°31' W 005°14'163 9.7
2017-Nov-14 01:35N 55°57' W 006°53'1 9.7
2017-Nov-14 01:30N 55°56' W 006°52'5 9.1
2017-Nov-14 01:00N 55°53' W 006°47'5 9.7
2017-Nov-14 00:30N 55°49' W 006°42'510.3
2017-Nov-14 00:00N 55°44' W 006°37'510.0
2017-Nov-13 23:30N 55°40' W 006°33'611.2
2017-Nov-13 23:00N 55°35' W 006°27'612.1
2017-Nov-13 22:30N 55°30' W 006°21'611.5
2017-Nov-13 22:00N 55°26' W 006°15'  

Dump ship's entire track history